Time;durP1;ratioP1;P1;durP2;ratioP2;P2;SDS_P1;SDS_P2;PMS_P1;PMS_P2;Temp;Humidity;BMP_temperature;BMP_pressure;BME280_temperature;BME280_humidity;BME280_pressure;Samples;Min_cycle;Max_cycle;Signal;HPM_P1;HPM_P2
2022/08/17 00:00:38;;;;;;;6.20;5.25;;;;;;;19.40;100.00;97323.77;1836067;77;21005;-61
2022/08/17 00:03:13;;;;;;;6.37;5.72;;;;;;;19.43;100.00;97325.17;1842256;77;21445;-63
2022/08/17 00:05:49;;;;;;;8.65;6.10;;;;;;;19.41;100.00;97326.69;1838661;77;21111;-62
2022/08/17 00:08:20;;;;;;;6.53;5.90;;;;;;;19.42;100.00;97329.05;1832866;77;20827;-62
2022/08/17 00:10:48;;;;;;;7.35;6.30;;;;;;;19.44;100.00;97330.04;1836964;77;20959;-64
2022/08/17 00:13:28;;;;;;;8.78;5.70;;;;;;;19.40;100.00;97319.13;1838483;78;20900;-63
2022/08/17 00:16:01;;;;;;;6.42;5.33;;;;;;;19.35;100.00;97324.05;1851030;77;21450;-62
2022/08/17 00:18:29;;;;;;;6.90;6.22;;;;;;;19.34;100.00;97325.17;1832325;77;21048;-61
2022/08/17 00:20:56;;;;;;;9.28;7.10;;;;;;;19.38;100.00;97322.79;1834742;77;20887;-62
2022/08/17 00:23:23;;;;;;;7.95;7.00;;;;;;;19.39;100.00;97330.34;1837506;77;21406;-59
2022/08/17 00:25:50;;;;;;;8.18;7.00;;;;;;;19.37;100.00;97327.20;1827045;77;21451;-64
2022/08/17 00:28:18;;;;;;;7.00;6.00;;;;;;;19.35;100.00;97328.12;1848320;77;20880;-64
2022/08/17 00:30:46;;;;;;;6.35;5.75;;;;;;;19.30;100.00;97331.13;1848958;77;21117;-62
2022/08/17 00:33:16;;;;;;;9.98;6.20;;;;;;;19.26;100.00;97328.94;1842052;77;20914;-62
2022/08/17 00:35:42;;;;;;;7.55;5.75;;;;;;;19.23;100.00;97333.16;1849052;77;20860;-62
2022/08/17 00:38:10;;;;;;;6.95;5.75;;;;;;;19.21;100.00;97334.66;1848960;77;20979;-61
2022/08/17 00:40:44;;;;;;;7.62;5.42;;;;;;;19.19;100.00;97336.95;1842213;77;20900;-62
2022/08/17 00:43:39;;;;;;;7.00;4.97;;;;;;;19.13;100.00;97333.18;1831325;77;21418;-61
2022/08/17 00:46:13;;;;;;;5.03;4.55;;;;;;;19.13;100.00;97333.18;1839511;77;21038;-60
2022/08/17 00:48:40;;;;;;;7.05;4.75;;;;;;;19.17;100.00;97329.75;1833981;77;20997;-63
2022/08/17 00:51:14;;;;;;;5.83;5.33;;;;;;;19.23;100.00;97325.58;1837215;77;20963;-61
2022/08/17 00:53:44;;;;;;;7.10;5.33;;;;;;;19.31;100.00;97327.28;1844608;77;20919;-62
2022/08/17 00:56:14;;;;;;;7.60;5.20;;;;;;;19.35;100.00;97331.63;1849002;77;21258;-61
2022/08/17 00:58:41;;;;;;;5.22;4.67;;;;;;;19.35;100.00;97336.27;1836254;77;20868;-62
2022/08/17 01:01:07;;;;;;;5.95;4.45;;;;;;;19.32;100.00;97332.91;1838657;77;20959;-63
2022/08/17 01:03:34;;;;;;;8.88;4.35;;;;;;;19.33;100.00;97330.41;1816378;78;20884;-64
2022/08/17 01:06:01;;;;;;;8.40;4.67;;;;;;;19.34;100.00;97340.11;1810505;77;21469;-63
2022/08/17 01:08:29;;;;;;;7.70;5.03;;;;;;;19.35;100.00;97347.13;1838152;77;21419;-62
2022/08/17 01:11:00;;;;;;;7.12;5.05;;;;;;;19.35;100.00;97349.27;1839116;77;20879;-61
2022/08/17 01:13:27;;;;;;;5.90;4.72;;;;;;;19.39;100.00;97356.14;1837411;77;20952;-60
2022/08/17 01:15:58;;;;;;;4.40;4.00;;;;;;;19.41;100.00;97348.41;1849275;77;21375;-60
2022/08/17 01:18:25;;;;;;;9.90;4.65;;;;;;;19.43;100.00;97348.86;1849351;77;20873;-62
2022/08/17 01:20:54;;;;;;;7.10;5.12;;;;;;;19.45;100.00;97359.56;1842584;77;21865;-60
2022/08/17 01:23:22;;;;;;;6.25;4.78;;;;;;;19.46;100.00;97354.33;1838671;77;20863;-63
2022/08/17 01:25:52;;;;;;;7.10;4.97;;;;;;;19.49;100.00;97354.97;1848223;77;21007;-60
2022/08/17 01:28:19;;;;;;;9.43;5.10;;;;;;;19.54;100.00;97364.74;1846044;77;20929;-62
2022/08/17 01:30:47;;;;;;;5.47;4.78;;;;;;;19.55;100.00;97363.58;1841231;77;20990;-62
2022/08/17 01:33:13;;;;;;;5.47;4.97;;;;;;;19.52;100.00;97365.12;1838376;77;21221;-63
2022/08/17 01:35:40;;;;;;;6.45;5.60;;;;;;;19.49;100.00;97367.76;1848621;77;20911;-62
2022/08/17 01:38:08;;;;;;;6.15;5.15;;;;;;;19.48;100.00;97368.33;1836708;78;21485;-62
2022/08/17 01:40:39;;;;;;;7.08;5.50;;;;;;;19.49;100.00;97360.97;1836151;77;21423;-62
2022/08/17 01:43:13;;;;;;;7.22;5.03;;;;;;;19.53;100.00;97366.67;1834509;77;20865;-62
2022/08/17 01:45:45;;;;;;;5.60;4.62;;;;;;;19.54;100.00;97367.46;1840593;77;21115;-60
2022/08/17 01:48:11;;;;;;;4.87;4.47;;;;;;;19.54;100.00;97367.46;1841114;77;20872;-63
2022/08/17 01:50:40;;;;;;;10.65;5.35;;;;;;;19.53;100.00;97363.16;1834613;77;21398;-62
2022/08/17 01:53:12;;;;;;;6.65;5.37;;;;;;;19.56;100.00;97365.16;1839448;77;20963;-61
2022/08/17 01:55:43;;;;;;;8.20;5.42;;;;;;;19.58;100.00;97353.36;1846098;77;20974;-61
2022/08/17 01:58:10;;;;;;;6.05;4.97;;;;;;;19.58;100.00;97357.43;1836542;77;21199;-62
2022/08/17 02:00:39;;;;;;;5.37;4.87;;;;;;;19.58;100.00;97356.07;1847829;77;20912;-60
2022/08/17 02:03:07;;;;;;;6.28;5.10;;;;;;;19.58;100.00;97360.94;1838045;77;20895;-60
2022/08/17 02:05:34;;;;;;;6.53;5.30;;;;;;;19.58;100.00;97358.79;1837067;77;20849;-63
2022/08/17 02:08:02;;;;;;;7.67;5.30;;;;;;;19.58;100.00;97360.14;1845993;77;20967;-60
2022/08/17 02:10:31;;;;;;;7.10;5.58;;;;;;;19.57;100.00;97361.31;1849067;77;21797;-60
2022/08/17 02:12:59;;;;;;;6.55;5.65;;;;;;;19.57;100.00;97355.28;1849156;77;20908;-61
2022/08/17 02:15:27;;;;;;;6.87;5.17;;;;;;;19.55;99.95;97360.86;1845414;77;21295;-61
2022/08/17 02:17:54;;;;;;;9.03;5.12;;;;;;;19.51;100.00;97361.39;1838183;77;20918;-63
2022/08/17 02:20:21;;;;;;;6.90;5.58;;;;;;;19.53;100.00;97360.45;1841205;77;20914;-63
2022/08/17 02:22:48;;;;;;;7.40;4.92;;;;;;;19.56;100.00;97362.45;1834958;77;21072;-60
2022/08/17 02:25:17;;;;;;;8.40;5.25;;;;;;;19.60;100.00;97361.92;1841129;77;20867;-61
2022/08/17 02:27:43;;;;;;;5.75;5.03;;;;;;;19.60;99.78;97360.56;1846106;77;21386;-61
2022/08/17 02:30:12;;;;;;;5.92;4.90;;;;;;;19.60;99.54;97364.64;1834678;77;21434;-63
2022/08/17 02:32:39;;;;;;;8.13;5.12;;;;;;;19.59;99.54;97360.37;1837481;77;20892;-61
2022/08/17 02:35:07;;;;;;;6.65;5.25;;;;;;;19.56;99.35;97361.09;1841197;77;21236;-61
2022/08/17 02:37:34;;;;;;;6.45;4.80;;;;;;;19.54;99.57;97353.31;1835589;77;20874;-62
2022/08/17 02:40:02;;;;;;;8.98;5.28;;;;;;;19.56;99.48;97351.58;1839766;77;20904;-60
2022/08/17 02:42:33;;;;;;;5.15;4.65;;;;;;;19.58;99.37;97357.43;1849020;77;20963;-62
2022/08/17 02:45:04;;;;;;;9.20;4.67;;;;;;;19.59;99.22;97354.94;1849150;77;20904;-62
2022/08/17 02:47:31;;;;;;;8.38;5.00;;;;;;;19.60;99.12;97356.48;1844038;77;21209;-63
2022/08/17 02:49:57;;;;;;;7.90;5.90;;;;;;;19.62;99.07;97365.84;1834241;77;21426;-62
2022/08/17 02:52:30;;;;;;;6.12;4.85;;;;;;;19.62;99.04;97365.05;1840847;77;20873;-61
2022/08/17 02:54:55;;;;;;;7.00;4.90;;;;;;;19.63;99.10;97371.50;1842687;77;20999;-63
2022/08/17 02:57:22;;;;;;;6.65;4.97;;;;;;;19.66;99.15;97369.99;1840219;77;20959;-61
2022/08/17 02:59:48;;;;;;;8.08;4.80;;;;;;;19.64;98.91;97369.58;1832929;77;21911;-63
2022/08/17 03:02:15;;;;;;;8.23;5.40;;;;;;;19.59;98.99;97373.38;1829933;77;20856;-61
2022/08/17 03:04:41;;;;;;;6.33;5.65;;;;;;;19.57;99.07;97370.81;1836527;77;20908;-61
2022/08/17 03:07:08;;;;;;;7.05;5.22;;;;;;;19.54;99.22;97373.68;1847167;77;20935;-64
2022/08/17 03:09:35;;;;;;;7.75;5.92;;;;;;;19.54;99.39;97373.68;1849168;77;21376;-61
2022/08/17 03:12:10;;;;;;;6.10;5.50;;;;;;;19.56;99.56;97367.31;1838533;77;21218;-62
2022/08/17 03:14:38;;;;;;;7.12;4.90;;;;;;;19.57;99.38;97372.17;1839799;77;20915;-62
2022/08/17 03:17:04;;;;;;;7.58;4.75;;;;;;;19.56;99.41;97373.31;1844295;77;21387;-61
2022/08/17 03:19:31;;;;;;;6.28;5.50;;;;;;;19.58;99.57;97377.80;1849328;77;21600;-61
2022/08/17 03:21:58;;;;;;;6.92;5.30;;;;;;;19.58;99.57;97379.95;1834694;77;20962;-61
2022/08/17 03:24:25;;;;;;;7.03;5.33;;;;;;;19.57;99.49;97371.58;1840712;77;21117;-62
2022/08/17 03:26:51;;;;;;;9.78;5.92;;;;;;;19.56;99.57;97372.74;1835586;77;20896;-63
2022/08/17 03:29:18;;;;;;;7.78;5.03;;;;;;;19.58;99.61;97376.44;1842492;77;20951;-63
2022/08/17 03:31:49;;;;;;;10.82;5.40;;;;;;;19.60;99.75;97368.71;1845689;77;20884;-61
2022/08/17 03:34:14;;;;;;;9.85;5.58;;;;;;;19.61;99.56;97371.65;1839947;77;20907;-62
2022/08/17 03:36:41;;;;;;;8.75;5.55;;;;;;;19.58;99.53;97365.58;1832682;77;21959;-61
2022/08/17 03:39:08;;;;;;;8.83;5.75;;;;;;;19.56;99.64;97369.23;1841623;77;20879;-61
2022/08/17 03:41:36;;;;;;;7.65;4.95;;;;;;;19.54;99.71;97370.97;1838936;77;20900;-61
2022/08/17 03:44:03;;;;;;;7.42;5.30;;;;;;;19.57;99.81;97376.25;1840906;77;20837;-61
2022/08/17 03:57:17;;;;;;;5.90;5.37;;;;;;;19.52;99.71;97374.62;1847115;77;21480;-59
2022/08/17 03:59:44;;;;;;;7.60;5.35;;;;;;;19.47;100.00;97376.84;1847148;77;20864;-60
2022/08/17 04:02:27;;;;;;;6.33;5.33;;;;;;;19.48;100.00;97380.55;1839140;77;21227;-61
2022/08/17 04:04:53;;;;;;;7.78;5.97;;;;;;;19.51;100.00;97385.83;1853803;77;21394;-64
2022/08/17 04:07:22;;;;;;;7.60;6.05;;;;;;;19.54;100.00;97391.34;1839509;77;20962;-62
2022/08/17 04:09:49;;;;;;;7.08;6.37;;;;;;;19.57;100.00;97395.27;1838246;77;21042;-62
2022/08/17 04:12:17;;;;;;;6.03;5.42;;;;;;;19.55;100.00;97398.33;1837252;77;21474;-60
2022/08/17 04:14:44;;;;;;;9.75;5.87;;;;;;;19.51;100.00;97398.05;1849138;77;21135;-62
2022/08/17 04:17:10;;;;;;;6.42;5.78;;;;;;;19.48;100.00;97392.77;1849080;77;21454;-63
2022/08/17 04:19:37;;;;;;;9.98;6.85;;;;;;;19.48;100.00;97397.41;1843907;77;21476;-60
2022/08/17 04:22:08;;;;;;;7.05;6.30;;;;;;;19.49;100.00;97397.63;1836552;77;20919;-62
2022/08/17 04:24:33;;;;;;;11.28;7.58;;;;;;;19.52;100.00;97396.92;1833285;77;20900;-62
2022/08/17 04:27:00;;;;;;;9.38;7.53;;;;;;;19.52;100.00;97402.35;1843766;77;22087;-61
2022/08/17 04:29:27;;;;;;;10.03;6.85;;;;;;;19.51;100.00;97404.84;1838831;77;20995;-62
2022/08/17 04:31:53;;;;;;;9.40;6.58;;;;;;;19.53;100.00;97402.55;1835513;77;20864;-60
2022/08/17 04:34:20;;;;;;;8.35;7.55;;;;;;;19.53;100.00;97406.05;1835585;77;20932;-62
2022/08/17 04:36:47;;;;;;;11.28;7.70;;;;;;;19.52;100.00;97403.70;1837264;77;21082;-61
2022/08/17 04:39:13;;;;;;;9.48;8.30;;;;;;;19.50;100.00;97397.86;1849077;77;21225;-60
2022/08/17 04:44:26;;;;;;;12.25;7.60;;;;;;;19.53;100.00;97398.47;1846086;77;20895;-63
2022/08/17 04:46:52;;;;;;;10.15;8.18;;;;;;;19.52;100.00;97399.63;1841590;77;20880;-62
2022/08/17 04:49:19;;;;;;;10.50;8.40;;;;;;;19.54;100.00;97401.41;1843200;77;20891;-60
2022/08/17 04:51:46;;;;;;;12.05;9.05;;;;;;;19.55;100.00;97403.75;1844193;77;22025;-62
2022/08/17 04:54:19;;;;;;;11.93;8.68;;;;;;;19.56;100.00;97403.19;1838297;77;20903;-63
2022/08/17 04:56:46;;;;;;;9.50;8.50;;;;;;;19.55;100.00;97407.83;1835383;77;20999;-59
2022/08/17 04:59:19;;;;;;;10.58;8.45;;;;;;;19.52;100.00;97401.78;1839012;77;20880;-62
2022/08/17 05:01:47;;;;;;;11.55;8.40;;;;;;;19.51;100.00;97400.20;1849180;77;20872;-62
2022/08/17 05:04:21;;;;;;;12.40;8.60;;;;;;;19.49;100.00;97398.99;1830884;77;21800;-61
2022/08/17 05:06:48;;;;;;;14.33;8.88;;;;;;;19.44;100.00;97396.58;1837586;77;20959;-61
2022/08/17 05:09:16;;;;;;;12.58;9.50;;;;;;;19.46;100.00;97396.99;1828336;77;20999;-62
2022/08/17 05:11:44;;;;;;;12.47;9.53;;;;;;;19.48;100.00;97397.41;1847306;77;21429;-62
2022/08/17 05:14:11;;;;;;;10.63;8.58;;;;;;;19.50;100.00;97396.50;1829561;77;20983;-61
2022/08/17 05:16:38;;;;;;;10.68;8.70;;;;;;;19.52;100.00;97399.06;1829554;77;21497;-62
2022/08/17 05:19:04;;;;;;;12.40;9.23;;;;;;;19.55;100.00;97401.61;1819030;79;20832;-62
2022/08/17 05:21:31;;;;;;;12.50;9.58;;;;;;;19.61;100.00;97407.76;1819468;78;21038;-62
2022/08/17 05:26:28;;;;;;;9.85;8.85;;;;;;;19.78;100.00;97406.48;1872841;75;23368;-63
2022/08/17 05:29:10;;;;;;;12.58;8.75;;;;;;;19.75;100.00;97411.28;1855570;77;20997;-62
2022/08/17 05:31:37;;;;;;;16.70;9.35;;;;;;;19.78;100.00;97406.48;1838792;77;21130;-61
2022/08/17 05:34:16;;;;;;;10.78;9.63;;;;;;;19.85;100.00;97416.67;1855277;77;20887;-61
2022/08/17 05:36:43;;;;;;;14.70;9.93;;;;;;;19.90;100.00;97414.45;1860562;77;21469;-59
2022/08/17 05:39:13;;;;;;;13.68;10.15;;;;;;;19.92;100.00;97423.02;1823061;77;20968;-62
2022/08/17 05:41:39;;;;;;;16.10;10.58;;;;;;;19.93;100.00;97420.48;1822174;78;20876;-61
2022/08/17 05:44:06;;;;;;;12.80;10.13;;;;;;;19.96;100.00;97421.70;1828755;77;21148;-60
2022/08/17 05:46:36;;;;;;;13.65;9.55;;;;;;;19.96;100.00;97421.12;1846594;77;20868;-62
2022/08/17 05:49:06;;;;;;;16.87;10.63;;;;;;;19.97;100.00;97417.27;1828350;77;21496;-61
2022/08/17 05:51:58;;;;;;;14.38;9.20;;;;;;;19.97;100.00;97419.99;1828074;77;20876;-62
2022/08/17 05:54:53;;;;;;;17.32;9.35;;;;;;;20.00;100.00;97415.73;1836447;77;20829;-60
2022/08/17 05:57:56;;;;;;;13.85;9.05;;;;;;;20.05;100.00;97423.02;1852384;77;21263;-60
2022/08/17 06:00:27;;;;;;;11.05;8.88;;;;;;;20.06;100.00;97420.52;1853234;77;20900;-62
2022/08/17 06:03:16;;;;;;;10.15;8.85;;;;;;;20.05;99.90;97433.89;1836476;77;20876;-63
2022/08/17 06:06:36;;;;;;;11.68;8.63;;;;;;;20.01;99.85;97426.26;1828262;77;21485;-61
2022/08/17 06:09:14;;;;;;;9.95;8.73;;;;;;;20.05;99.87;97427.66;1812797;78;21013;-60
2022/08/17 06:11:50;;;;;;;14.13;9.40;;;;;;;20.08;99.54;97423.65;1827334;77;21072;-61
2022/08/17 06:14:46;;;;;;;11.80;8.78;;;;;;;20.12;99.38;97426.41;1844640;77;20832;-61
2022/08/17 06:17:19;;;;;;;12.75;9.28;;;;;;;20.15;99.31;97431.13;1824722;76;20904;-60
2022/08/17 06:19:53;;;;;;;14.13;10.10;;;;;;;20.17;99.05;97418.73;1831901;77;21086;-61
2022/08/17 06:22:22;;;;;;;16.55;9.90;;;;;;;20.20;99.04;97419.38;1829576;77;21101;-62
2022/08/17 06:24:59;;;;;;;14.75;9.75;;;;;;;20.19;98.86;97417.79;1829204;77;21026;-61
2022/08/17 06:27:57;;;;;;;13.05;8.93;;;;;;;20.23;98.83;97418.64;1820651;77;21052;-60
2022/08/17 06:30:27;;;;;;;10.50;8.68;;;;;;;20.25;98.66;97419.09;1811747;77;20971;-62
2022/08/17 06:33:01;;;;;;;11.80;9.30;;;;;;;20.30;98.78;97416.03;1815837;77;20970;-62
2022/08/17 06:35:33;;;;;;;9.78;8.50;;;;;;;20.32;98.35;97415.11;1799000;78;20934;-60
2022/08/17 06:38:17;;;;;;;11.48;8.90;;;;;;;20.36;98.27;97422.73;1816978;77;21084;-60
2022/08/17 06:41:02;;;;;;;11.83;8.85;;;;;;;20.38;98.08;97421.80;1808304;77;21076;-62
2022/08/17 06:43:43;;;;;;;12.43;8.78;;;;;;;20.38;97.95;97419.08;1832317;77;21401;-61
2022/08/17 06:46:40;;;;;;;13.48;9.40;;;;;;;20.36;97.62;97423.31;1819538;77;20928;-61
2022/08/17 06:49:19;;;;;;;13.50;9.60;;;;;;;20.35;97.59;97421.16;1824257;77;21061;-63
2022/08/17 06:51:58;;;;;;;14.10;10.53;;;;;;;20.36;97.57;97426.81;1835697;77;21191;-60
2022/08/17 06:54:40;;;;;;;15.70;8.78;;;;;;;20.43;97.63;97420.12;1811908;77;21520;-60
2022/08/17 06:57:21;;;;;;;12.50;8.38;;;;;;;20.54;97.23;97423.57;1813248;78;20882;-61
2022/08/17 07:00:04;;;;;;;13.38;8.38;;;;;;;20.62;96.56;97427.94;1812394;77;21475;-60
2022/08/17 07:02:58;;;;;;;10.48;8.35;;;;;;;20.71;96.44;97428.44;1792880;77;21055;-60
2022/08/17 07:05:46;;;;;;;11.63;8.80;;;;;;;20.78;95.81;97423.88;1829390;77;21379;-63
2022/08/17 07:08:45;;;;;;;12.05;7.92;;;;;;;20.83;95.12;97430.93;1817049;77;20967;-60
2022/08/17 07:11:16;;;;;;;13.78;8.30;;;;;;;20.87;94.86;97433.11;1815498;77;21141;-62
2022/08/17 07:14:09;;;;;;;10.68;7.83;;;;;;;20.92;94.05;97434.15;1795708;78;21053;-60
2022/08/17 07:16:41;;;;;;;12.95;8.03;;;;;;;20.94;93.83;97438.64;1701075;77;21035;-62
2022/08/17 07:19:08;;;;;;;12.63;8.15;;;;;;;20.95;93.61;97440.22;1823409;77;21070;-61
2022/08/17 07:21:45;;;;;;;15.45;8.45;;;;;;;20.94;93.31;97438.64;1816998;77;21083;-63
2022/08/17 07:24:27;;;;;;;14.30;7.97;;;;;;;20.94;93.56;97435.34;1817024;77;20967;-61
2022/08/17 07:27:09;;;;;;;12.28;8.23;;;;;;;20.97;93.21;97436.55;1806393;78;21340;-58
2022/08/17 07:29:50;;;;;;;15.23;9.25;;;;;;;21.05;93.25;97443.12;1817078;77;20975;-60
2022/08/17 07:32:21;;;;;;;14.58;8.58;;;;;;;21.09;92.74;97439.06;1812617;77;21145;-61
2022/08/17 07:35:29;;;;;;;13.22;8.80;;;;;;;21.13;93.05;97440.66;1793062;78;20930;-61
2022/08/17 07:38:14;;;;;;;10.90;8.23;;;;;;;21.25;92.63;97445.08;1789536;78;20956;-60
2022/08/17 07:41:00;;;;;;;9.93;8.15;;;;;;;21.39;92.37;97445.23;1805333;78;21457;-63
2022/08/17 07:43:42;;;;;;;10.30;8.43;;;;;;;21.47;92.02;97444.16;1769737;80;21077;-63
2022/08/17 07:49:14;;;;;;;12.00;8.50;;;;;;;21.60;90.49;97446.02;1819080;77;21133;-59
2022/08/17 07:51:52;;;;;;;12.93;8.23;;;;;;;21.57;90.46;97444.84;1816756;77;20889;-62
2022/08/17 07:54:23;;;;;;;14.23;7.97;;;;;;;21.59;90.45;97449.34;1825170;77;20932;-60
2022/08/17 07:56:57;;;;;;;15.55;8.63;;;;;;;21.61;90.49;97450.31;1789855;78;21017;-60
2022/08/17 07:59:38;;;;;;;10.70;8.23;;;;;;;21.65;90.55;97456.00;1822633;77;21226;-60
2022/08/17 08:02:26;;;;;;;12.75;7.80;;;;;;;21.68;90.11;97460.71;1827525;77;21575;-61
2022/08/17 08:05:08;;;;;;;10.03;7.90;;;;;;;21.70;89.74;97451.58;1799531;78;21072;-60
2022/08/17 08:07:41;;;;;;;10.65;8.13;;;;;;;21.75;89.54;97456.69;1824554;77;21524;-60
2022/08/17 08:10:26;;;;;;;15.08;8.48;;;;;;;21.77;89.05;97454.94;1810648;77;21073;-59
2022/08/17 08:13:09;;;;;;;11.45;8.25;;;;;;;21.77;88.58;97460.39;1831952;77;21706;-62
2022/08/17 08:15:49;;;;;;;9.95;7.85;;;;;;;21.77;89.00;97459.82;1821699;77;20927;-59
2022/08/17 08:18:35;;;;;;;11.57;7.33;;;;;;;21.80;88.81;97462.37;1811578;77;21007;-59
2022/08/17 08:21:11;;;;;;;11.08;7.62;;;;;;;21.83;88.53;97476.02;1817517;77;21009;-59
2022/08/17 08:23:49;;;;;;;11.80;7.55;;;;;;;21.83;88.34;97471.75;1826628;77;21042;-58
2022/08/17 08:26:42;;;;;;;9.63;7.70;;;;;;;21.81;87.94;97478.34;1815949;77;21898;-62
2022/08/17 08:29:32;;;;;;;12.30;7.95;;;;;;;21.87;88.35;97475.31;1812949;77;20836;-62
2022/08/17 08:32:35;;;;;;;8.85;6.90;;;;;;;21.94;87.75;97479.47;1821169;77;20952;-64
2022/08/17 08:35:29;;;;;;;8.83;6.97;;;;;;;22.02;87.22;97482.47;1813615;77;21668;-62
2022/08/17 08:38:09;;;;;;;12.47;7.10;;;;;;;22.15;86.46;97489.19;1831408;77;21006;-59
2022/08/17 08:40:54;;;;;;;10.20;7.05;;;;;;;22.22;85.70;97489.24;1821576;77;21757;-59
2022/08/17 08:43:36;;;;;;;14.25;8.08;;;;;;;22.26;85.47;97487.32;1827370;77;20931;-60
2022/08/17 08:46:28;;;;;;;10.25;7.03;;;;;;;22.33;85.36;97488.73;1814443;77;21072;-60
2022/08/17 08:49:24;;;;;;;8.78;6.62;;;;;;;22.38;84.69;97496.00;1821280;77;20990;-60
2022/08/17 08:51:56;;;;;;;12.13;6.58;;;;;;;22.42;84.15;97496.04;1828044;77;20996;-60
2022/08/17 08:54:46;;;;;;;9.63;6.70;;;;;;;22.50;83.97;97492.18;1840270;77;21895;-62
2022/08/17 08:57:59;;;;;;;11.75;7.10;;;;;;;22.61;84.22;97485.47;1820801;77;20961;-61
2022/08/17 09:00:26;;;;;;;7.58;6.50;;;;;;;22.76;83.71;97481.65;1699297;83;20932;-60
2022/08/17 09:03:22;;;;;;;8.60;6.25;;;;;;;22.84;82.66;97488.15;1704536;83;21495;-61
2022/08/17 09:06:16;;;;;;;8.70;6.60;;;;;;;22.86;81.68;97487.18;1786039;77;21579;-60
2022/08/17 09:09:15;;;;;;;10.50;6.67;;;;;;;22.89;81.76;97486.39;1816654;77;21519;-64
2022/08/17 09:11:48;;;;;;;6.85;6.08;;;;;;;22.92;81.06;97487.00;1811009;77;20918;-61
2022/08/17 09:14:44;;;;;;;11.20;5.97;;;;;;;22.94;81.61;97486.03;1819414;77;21010;-61
2022/08/17 09:17:19;;;;;;;9.38;6.53;;;;;;;22.92;80.82;97483.48;1756564;78;21068;-59
2022/08/17 09:20:02;;;;;;;7.92;6.17;;;;;;;22.82;80.85;97484.99;1760995;79;21636;-60
2022/08/17 09:22:44;;;;;;;7.75;6.08;;;;;;;22.67;80.80;97487.45;1780543;79;21117;-60
2022/08/17 09:25:27;;;;;;;9.60;6.22;;;;;;;22.57;81.50;97489.50;1746198;81;21565;-62
2022/08/17 09:28:06;;;;;;;11.40;6.47;;;;;;;22.46;81.69;97493.53;1829066;77;21026;-60
2022/08/17 09:30:49;;;;;;;9.68;6.12;;;;;;;22.38;82.09;97497.94;1821623;77;21539;-60
2022/08/17 09:33:21;;;;;;;7.47;6.00;;;;;;;22.31;82.46;97506.06;1814512;77;21017;-60
2022/08/17 09:35:56;;;;;;;8.05;6.42;;;;;;;22.22;82.54;97498.79;1821049;77;21031;-62
2022/08/17 09:39:05;;;;;;;8.38;5.97;;;;;;;22.21;83.24;97508.16;1820651;77;21048;-62
2022/08/17 09:41:48;;;;;;;6.85;5.80;;;;;;;22.21;83.62;97508.16;1820900;77;20977;-61
2022/08/17 09:44:32;;;;;;;6.20;5.60;;;;;;;22.20;83.20;97502.48;1809797;78;21069;-61
2022/08/17 09:47:42;;;;;;;8.23;6.12;;;;;;;22.21;83.04;97514.97;1806733;78;21026;-63
2022/08/17 09:50:23;;;;;;;9.20;6.65;;;;;;;22.21;82.54;97506.79;1816850;77;21073;-62
2022/08/17 09:52:57;;;;;;;9.95;6.92;;;;;;;22.17;82.75;97510.05;1748767;80;21012;-62
2022/08/17 09:55:28;;;;;;;7.40;6.53;;;;;;;22.13;83.02;97506.52;1787785;79;21066;-60
2022/08/17 09:58:17;;;;;;;10.00;6.28;;;;;;;22.15;83.29;97509.06;1767758;79;21123;-62
2022/08/17 10:00:49;;;;;;;9.85;6.58;;;;;;;22.22;83.43;97511.06;1780109;78;21512;-61
2022/08/17 10:03:29;;;;;;;8.93;6.85;;;;;;;22.30;83.53;97510.73;1760584;80;22034;-60
2022/08/17 10:06:12;;;;;;;12.53;6.85;;;;;;;22.31;83.09;97507.43;1760985;79;20978;-61
2022/08/17 10:09:07;;;;;;;8.43;6.45;;;;;;;22.33;83.09;97511.92;1768471;80;21093;-60
2022/08/17 10:15:04;;;;;;;6.80;6.10;;;;;;;22.68;83.76;97514.17;1821755;77;21082;-60
2022/08/17 10:17:45;;;;;;;8.10;7.05;;;;;;;22.98;83.14;97510.64;1803529;78;21125;-61
2022/08/17 10:20:32;;;;;;;9.60;6.25;;;;;;;23.23;82.30;97514.84;1815544;78;20941;-60
2022/08/17 10:26:17;;;;;;;6.83;6.12;;;;;;;23.43;79.53;97520.23;1823427;77;21051;-60
2022/08/17 10:28:52;;;;;;;8.90;6.65;;;;;;;23.35;78.04;97517.27;1821841;77;21096;-61
2022/08/17 10:31:35;;;;;;;10.90;6.80;;;;;;;23.23;78.15;97511.53;1808099;77;21469;-60
2022/08/17 10:34:40;;;;;;;7.58;6.78;;;;;;;23.14;78.21;97518.73;1813418;77;21100;-60
2022/08/17 10:37:33;;;;;;;9.85;7.10;;;;;;;23.08;78.36;97518.88;1823572;77;21031;-60
2022/08/17 10:40:42;;;;;;;9.65;7.80;;;;;;;23.05;78.15;97523.76;1807873;77;21050;-61
2022/08/17 10:43:26;;;;;;;12.80;8.23;;;;;;;23.09;78.93;97524.55;1804039;77;21513;-58
2022/08/17 10:46:13;;;;;;;12.47;8.28;;;;;;;23.10;78.37;97528.08;1812470;77;21120;-60
2022/08/17 10:48:41;;;;;;;10.88;7.00;;;;;;;23.11;78.43;97527.67;1815025;78;20955;-61
2022/08/17 10:51:44;;;;;;;11.80;7.30;;;;;;;23.08;78.95;97525.70;1814596;78;21125;-61
2022/08/17 10:54:44;;;;;;;11.90;6.97;;;;;;;23.12;78.79;97527.89;1812687;77;20996;-61
2022/08/17 10:57:34;;;;;;;10.13;7.65;;;;;;;23.19;78.54;97531.23;1777983;77;21024;-62
2022/08/17 11:00:16;;;;;;;10.80;7.72;;;;;;;23.34;79.11;97527.98;1808763;77;21115;-62
2022/08/17 11:02:53;;;;;;;9.65;8.38;;;;;;;23.55;78.63;97525.36;1821527;77;21487;-62
2022/08/17 11:05:52;;;;;;;11.43;8.68;;;;;;;23.72;77.19;97523.23;1789437;79;20987;-61
2022/08/17 11:08:49;;;;;;;10.50;8.50;;;;;;;23.79;76.22;97527.36;1751915;80;21193;-62
2022/08/17 11:11:56;;;;;;;10.43;8.58;;;;;;;23.84;75.94;97521.52;1743612;80;21037;-61
2022/08/17 11:15:13;;;;;;;10.23;8.25;;;;;;;23.96;75.37;97523.87;1810539;77;21441;-61
2022/08/17 11:17:51;;;;;;;8.75;7.25;;;;;;;24.29;74.55;97522.19;1822532;77;21066;-62
2022/08/17 11:20:23;;;;;;;9.58;7.22;;;;;;;24.63;73.49;97516.30;1821128;77;21506;-60
2022/08/17 11:23:13;;;;;;;10.85;7.85;;;;;;;24.83;72.58;97518.25;1816310;77;21070;-62
2022/08/17 11:25:43;;;;;;;8.35;7.53;;;;;;;24.97;72.22;97522.91;1815239;77;21112;-59
2022/08/17 11:28:26;;;;;;;12.20;7.17;;;;;;;24.98;71.46;97521.16;1818064;77;21195;-61
2022/08/17 11:30:56;;;;;;;8.93;7.45;;;;;;;24.89;71.30;97520.00;1816027;77;20962;-61
2022/08/17 11:33:35;;;;;;;8.68;7.45;;;;;;;24.72;71.15;97516.67;1821280;77;20960;-61
2022/08/17 11:36:36;;;;;;;9.80;7.47;;;;;;;24.63;71.70;97521.20;1826325;77;21006;-61
2022/08/17 11:39:30;;;;;;;12.03;6.80;;;;;;;24.82;72.34;97522.18;1836292;77;21113;-61
2022/08/17 11:42:11;;;;;;;12.60;6.72;;;;;;;25.13;70.39;97519.92;1818022;77;21540;-62
2022/08/17 11:45:04;;;;;;;10.90;6.62;;;;;;;25.11;69.74;97518.75;1823095;77;21427;-61
2022/08/17 11:53:50;;;;;;;11.22;9.38;;;;;;;24.36;72.13;97520.81;1812845;77;20900;-60
2022/08/17 11:56:47;;;;;;;10.50;8.13;;;;;;;24.05;73.37;97528.96;1815251;78;21230;-60
2022/08/17 11:59:44;;;;;;;10.03;7.50;;;;;;;23.84;74.11;97525.61;1814551;77;21105;-61
2022/08/17 12:02:31;;;;;;;10.20;7.67;;;;;;;23.66;75.25;97526.16;1795751;77;21051;-60
2022/08/17 12:05:24;;;;;;;10.80;8.78;;;;;;;23.52;76.36;97530.22;1809112;77;21598;-60
2022/08/17 12:08:07;;;;;;;10.72;8.93;;;;;;;23.41;77.78;97528.05;1817966;77;20950;-60
2022/08/17 12:10:37;;;;;;;11.47;8.83;;;;;;;23.31;78.24;97528.17;1792855;78;21247;-60
2022/08/17 12:13:13;;;;;;;10.93;8.88;;;;;;;23.20;78.86;97525.95;1803887;77;21624;-61
2022/08/17 12:15:47;;;;;;;9.88;8.25;;;;;;;23.18;79.61;97524.77;1802792;77;21030;-60
2022/08/17 12:18:22;;;;;;;13.95;8.03;;;;;;;23.20;79.59;97523.83;1798253;78;21370;-59
2022/08/17 12:21:02;;;;;;;10.58;8.63;;;;;;;23.24;79.05;97523.25;1815245;77;21068;-60
2022/08/17 12:24:04;;;;;;;9.63;8.15;;;;;;;23.28;79.31;97522.67;1794709;78;21125;-60
2022/08/17 12:26:33;;;;;;;13.43;8.80;;;;;;;23.44;79.89;97517.69;1811843;77;21081;-60
2022/08/17 12:29:04;;;;;;;13.50;8.75;;;;;;;23.76;79.96;97510.38;1812895;77;21002;-60
2022/08/17 12:31:38;;;;;;;11.03;8.00;;;;;;;23.94;78.26;97508.45;1806260;77;21048;-60
2022/08/17 12:34:04;;;;;;;9.53;8.28;;;;;;;24.00;77.72;97504.14;1783970;79;21116;-60
2022/08/17 12:36:31;;;;;;;11.68;8.03;;;;;;;24.00;76.99;97513.72;1809430;78;21190;-60
2022/08/17 12:39:05;;;;;;;8.30;7.35;;;;;;;23.99;76.56;97513.54;1791162;77;20894;-58
2022/08/17 12:41:43;;;;;;;9.53;8.53;;;;;;;23.98;76.00;97517.44;1808169;77;21423;-60